Back to Top

Language: 

My Weather Underground Personal Weather Station Historical Data with Graphs...

Delerius Weather Station Historical Data
Daily Summary for June 1, 2017 Units:  English    Metric   Both
« Previous Day
Next Day »
Daily Weekly Monthly Yearly Custom
  High: Low: Average:
Temperature: 73.8 °F 54.7 °F 65.7 °F
Dew Point: 59.1 °F 52.4 °F 55.1 °F
Humidity: 94 % 50 % 70 %
Wind Speed: 13.0 mph 0.0 mph 5 mph
Wind Gust: 24.0 mph - -
Wind:- - SW
Pressure: 30.13 in 29.99 in -
Precipitation: 0.00 in    
Historical Graphs
 
 
Tabular Data for June 1, 2017
Time Temperature Dew Point Pressure Wind Wind Speed Wind Gust Humidity Rainfall Rate (Hourly) solar Conditions
00:03 63.9 °F 56.9 °F 30.13 in Calm     78 % 0.00 in 0 W/m2
00:08 63.7 °F 56.7 °F 30.13 in Calm     78 % 0.00 in 0 W/m2
00:13 63.5 °F 56.9 °F 30.13 in Calm     79 % 0.00 in 0 W/m2
00:18 63.3 °F 56.7 °F 30.13 in Calm     79 % 0.00 in 0 W/m2
00:23 63.1 °F 56.9 °F 30.13 in Calm   2.0 mph 80 % 0.00 in 0 W/m2
00:28 63.0 °F 56.7 °F 30.13 in SSE 1.0 mph 4.0 mph 80 % 0.00 in 0 W/m2
00:33 62.8 °F 56.5 °F 30.12 in ESE 2.0 mph 6.0 mph 80 % 0.00 in 0 W/m2
00:38 62.8 °F 56.5 °F 30.12 in ESE 2.0 mph 6.0 mph 80 % 0.00 in 0 W/m2
00:43 62.6 °F 56.7 °F 30.12 in SE 1.0 mph 4.0 mph 81 % 0.00 in 0 W/m2
00:48 62.4 °F 56.5 °F 30.12 in SE 3.0 mph 8.0 mph 81 % 0.00 in 0 W/m2
00:53 62.4 °F 56.5 °F 30.12 in SE 3.0 mph 8.0 mph 81 % 0.00 in 0 W/m2
00:58 62.2 °F 56.3 °F 30.12 in SE 2.0 mph 8.0 mph 81 % 0.00 in 0 W/m2
01:03 62.1 °F 56.5 °F 30.12 in SE 1.0 mph 5.0 mph 82 % 0.00 in 0 W/m2
01:04 62.1 °F 56.5 °F 30.12 in SE 1.0 mph 5.0 mph 82 % 0.00 in 0 W/m2
01:09 61.9 °F 56.3 °F 30.12 in Calm   2.0 mph 82 % 0.00 in 0 W/m2
01:14 61.5 °F 56.0 °F 30.12 in Calm   2.0 mph 82 % 0.00 in 0 W/m2
01:19 61.3 °F 56.1 °F 30.12 in Calm   2.0 mph 83 % 0.00 in 0 W/m2
01:24 61.2 °F 56.0 °F 30.12 in Calm   2.0 mph 83 % 0.00 in 0 W/m2
01:34 60.6 °F 55.8 °F 30.13 in Calm     84 % 0.00 in 0 W/m2
01:39 60.4 °F 55.6 °F 30.13 in Calm     84 % 0.00 in 0 W/m2
01:44 60.1 °F 55.2 °F 30.13 in Calm     84 % 0.00 in 0 W/m2
01:49 59.9 °F 55.1 °F 30.13 in Calm     84 % 0.00 in 0 W/m2
01:54 59.5 °F 55.0 °F 30.13 in Calm     85 % 0.00 in 0 W/m2
01:59 59.4 °F 54.8 °F 30.13 in Calm     85 % 0.00 in 0 W/m2
02:04 59.2 °F 55.0 °F 30.12 in Calm     86 % 0.00 in 0 W/m2
02:09 58.8 °F 54.6 °F 30.12 in Calm     86 % 0.00 in 0 W/m2
02:14 58.6 °F 54.5 °F 30.12 in Calm     86 % 0.00 in 0 W/m2
02:19 58.3 °F 54.4 °F 30.12 in Calm     87 % 0.00 in 0 W/m2
02:24 57.9 °F 54.1 °F 30.12 in Calm     87 % 0.00 in 0 W/m2
02:29 57.7 °F 54.2 °F 30.12 in Calm     88 % 0.00 in 0 W/m2
02:34 57.6 °F 54.0 °F 30.12 in Calm     88 % 0.00 in 0 W/m2
02:39 57.6 °F 54.3 °F 30.12 in Calm     89 % 0.00 in 0 W/m2
02:44 57.4 °F 54.2 °F 30.12 in Calm     89 % 0.00 in 0 W/m2
02:49 57.2 °F 54.0 °F 30.12 in Calm     89 % 0.00 in 0 W/m2
02:54 57.0 °F 54.1 °F 30.11 in Calm     90 % 0.00 in 0 W/m2
02:59 57.0 °F 54.1 °F 30.12 in Calm   2.0 mph 90 % 0.00 in 0 W/m2
03:04 56.8 °F 53.9 °F 30.11 in Calm   2.0 mph 90 % 0.00 in 0 W/m2
03:09 56.8 °F 54.2 °F 30.11 in Calm   2.0 mph 91 % 0.00 in 0 W/m2
03:14 56.7 °F 54.1 °F 30.11 in Calm     91 % 0.00 in 0 W/m2
03:19 56.7 °F 54.1 °F 30.11 in Calm     91 % 0.00 in 0 W/m2
03:24 56.5 °F 53.9 °F 30.11 in Calm     91 % 0.00 in 0 W/m2
03:29 56.3 °F 53.4 °F 30.11 in Calm     90 % 0.00 in 0 W/m2
03:34 55.9 °F 53.4 °F 30.11 in WSW 1.0 mph 7.0 mph 91 % 0.00 in 0 W/m2
03:39 55.9 °F 53.4 °F 30.11 in WSW 1.0 mph 7.0 mph 91 % 0.00 in 0 W/m2
03:44 55.6 °F 53.0 °F 30.11 in Calm     91 % 0.00 in 0 W/m2
03:49 55.6 °F 53.0 °F 30.11 in Calm     91 % 0.00 in 0 W/m2
03:54 55.4 °F 53.1 °F 30.11 in Calm     92 % 0.00 in 0 W/m2
03:59 55.2 °F 52.6 °F 30.11 in Calm     91 % 0.00 in 0 W/m2
04:04 55.2 °F 52.6 °F 30.11 in Calm     91 % 0.00 in 0 W/m2
04:09 55.0 °F 52.8 °F 30.12 in Calm     92 % 0.00 in 0 W/m2
04:15 55.0 °F 52.8 °F 30.12 in Calm   2.0 mph 92 % 0.00 in 0 W/m2
04:20 54.9 °F 52.6 °F 30.12 in Calm   2.0 mph 92 % 0.00 in 0 W/m2
04:25 55.0 °F 52.8 °F 30.12 in Calm   2.0 mph 92 % 0.00 in 0 W/m2
04:30 55.0 °F 52.8 °F 30.12 in Calm     92 % 0.00 in 0 W/m2
04:35 55.0 °F 52.8 °F 30.12 in Calm     92 % 0.00 in 0 W/m2
04:40 54.9 °F 52.6 °F 30.12 in Calm     92 % 0.00 in 0 W/m2
04:45 54.9 °F 52.6 °F 30.12 in Calm     92 % 0.00 in 0 W/m2
04:50 54.9 °F 52.6 °F 30.12 in Calm     92 % 0.00 in 0 W/m2
04:55 54.7 °F 52.7 °F 30.12 in Calm     93 % 0.00 in 5 W/m2
05:00 54.7 °F 52.4 °F 30.12 in Calm     92 % 0.00 in 7 W/m2
05:05 54.7 °F 52.7 °F 30.12 in Calm     93 % 0.00 in 12 W/m2
05:10 54.9 °F 52.9 °F 30.11 in Calm     93 % 0.00 in 18 W/m2
05:15 54.9 °F 52.9 °F 30.12 in Calm     93 % 0.00 in 23 W/m2
05:20 54.9 °F 52.6 °F 30.11 in Calm     92 % 0.00 in 28 W/m2
05:25 54.9 °F 52.6 °F 30.12 in Calm     92 % 0.00 in 35 W/m2
05:30 54.9 °F 52.6 °F 30.12 in Calm     92 % 0.00 in 39 W/m2
05:35 55.0 °F 53.1 °F 30.12 in Calm     93 % 0.00 in 39 W/m2
05:40 55.0 °F 52.8 °F 30.12 in Calm     92 % 0.00 in 42 W/m2
05:45 54.9 °F 52.6 °F 30.12 in Calm     92 % 0.00 in 40 W/m2
05:50 54.9 °F 52.6 °F 30.12 in Calm     92 % 0.00 in 46 W/m2
05:55 54.9 °F 52.6 °F 30.12 in Calm     92 % 0.00 in 62 W/m2
06:00 55.0 °F 53.1 °F 30.12 in Calm     93 % 0.00 in 97 W/m2
06:05 55.2 °F 53.2 °F 30.12 in Calm     93 % 0.00 in 88 W/m2
06:10 55.8 °F 54.1 °F 30.12 in Calm     94 % 0.00 in 70 W/m2
06:15 56.1 °F 54.1 °F 30.12 in Calm     93 % 0.00 in 70 W/m2
06:20 56.7 °F 55.0 °F 30.12 in Calm     94 % 0.00 in 63 W/m2
06:25 56.8 °F 54.8 °F 30.12 in Calm     93 % 0.00 in 62 W/m2
06:31 57.2 °F 55.2 °F 30.12 in Calm     93 % 0.00 in 58 W/m2
06:36 57.4 °F 55.1 °F 30.12 in Calm     92 % 0.00 in 58 W/m2
06:41 57.6 °F 55.3 °F 30.12 in Calm     92 % 0.00 in 67 W/m2
06:46 57.6 °F 55.3 °F 30.12 in Calm     92 % 0.00 in 62 W/m2
06:51 57.7 °F 55.1 °F 30.12 in Calm   2.0 mph 91 % 0.00 in 62 W/m2
06:56 57.9 °F 55.3 °F 30.12 in South 1.0 mph 5.0 mph 91 % 0.00 in 62 W/m2
07:01 58.1 °F 55.5 °F 30.11 in SSE 1.0 mph 5.0 mph 91 % 0.00 in 69 W/m2
07:02 58.1 °F 55.5 °F 30.11 in SE 1.0 mph 5.0 mph 91 % 0.00 in 72 W/m2
07:07 58.5 °F 55.8 °F 30.11 in ESE 2.0 mph 5.0 mph 91 % 0.00 in 81 W/m2
07:12 58.8 °F 56.2 °F 30.11 in East 2.0 mph 7.0 mph 91 % 0.00 in 114 W/m2
07:17 59.2 °F 56.6 °F 30.11 in East 3.0 mph 7.0 mph 91 % 0.00 in 278 W/m2
07:22 59.9 °F 57.0 °F 30.12 in ESE 2.0 mph 6.0 mph 90 % 0.00 in 287 W/m2
07:27 60.6 °F 57.7 °F 30.12 in ESE 1.0 mph 4.0 mph 90 % 0.00 in 281 W/m2
07:32 61.5 °F 57.9 °F 30.12 in Calm   2.0 mph 88 % 0.00 in 318 W/m2
07:37 62.2 °F 58.3 °F 30.12 in Calm   2.0 mph 87 % 0.00 in 248 W/m2
07:42 63.1 °F 58.6 °F 30.11 in Calm   3.0 mph 85 % 0.00 in 160 W/m2
07:43 63.1 °F 58.6 °F 30.11 in Calm   3.0 mph 85 % 0.00 in 141 W/m2
07:48 63.5 °F 58.2 °F 30.11 in Calm   2.0 mph 83 % 0.00 in 251 W/m2
07:53 63.7 °F 58.4 °F 30.11 in ESE 1.0 mph 5.0 mph 83 % 0.00 in 309 W/m2
07:58 63.9 °F 58.3 °F 30.11 in ESE 1.0 mph 5.0 mph 82 % 0.00 in 306 W/m2
08:03 64.2 °F 58.3 °F 30.11 in SSE 1.0 mph 5.0 mph 81 % 0.00 in 390 W/m2
08:09 64.8 °F 58.8 °F 30.11 in South 2.0 mph 5.0 mph 81 % 0.00 in 288 W/m2
08:14 65.1 °F 58.8 °F 30.11 in South 1.0 mph 6.0 mph 80 % 0.00 in 366 W/m2
08:19 65.5 °F 58.8 °F 30.11 in SSE 2.0 mph 7.0 mph 79 % 0.00 in 425 W/m2
08:24 65.5 °F 58.4 °F 30.11 in SSE 5.0 mph 9.0 mph 78 % 0.00 in 466 W/m2
08:29 65.8 °F 58.8 °F 30.11 in SSE 5.0 mph 9.0 mph 78 % 0.00 in 327 W/m2
08:34 66.0 °F 58.6 °F 30.10 in SSE 5.0 mph 9.0 mph 77 % 0.00 in 244 W/m2
08:39 66.0 °F 58.6 °F 30.10 in SSE 5.0 mph 9.0 mph 77 % 0.00 in 510 W/m2
08:44 66.2 °F 58.8 °F 30.10 in SSE 5.0 mph 9.0 mph 77 % 0.00 in 343 W/m2
08:49 66.4 °F 58.6 °F 30.10 in South 5.0 mph 9.0 mph 76 % 0.00 in 448 W/m2
08:54 66.2 °F 58.4 °F 30.10 in South 5.0 mph 9.0 mph 76 % 0.00 in 475 W/m2
08:59 66.6 °F 58.8 °F 30.10 in SSE 5.0 mph 9.0 mph 76 % 0.00 in 708 W/m2
09:04 66.9 °F 59.1 °F 30.10 in SSE 5.0 mph 10.0 mph 76 % 0.00 in 661 W/m2
09:05 67.1 °F 58.9 °F 30.10 in SSE 5.0 mph 10.0 mph 75 % 0.00 in 501 W/m2
09:10 67.5 °F 58.5 °F 30.10 in South 6.0 mph 12.0 mph 73 % 0.00 in 693 W/m2
09:15 67.6 °F 57.9 °F 30.10 in SSW 8.0 mph 13.0 mph 71 % 0.00 in 329 W/m2
09:20 67.6 °F 57.9 °F 30.10 in SW 7.0 mph 13.0 mph 71 % 0.00 in 151 W/m2
09:25 67.5 °F 57.3 °F 30.10 in SW 7.0 mph 11.0 mph 70 % 0.00 in 700 W/m2
09:30 67.5 °F 56.5 °F 30.10 in SW 7.0 mph 11.0 mph 68 % 0.00 in 195 W/m2
09:35 67.3 °F 56.4 °F 30.10 in SSW 6.0 mph 10.0 mph 68 % 0.00 in 258 W/m2
09:40 67.3 °F 56.8 °F 30.10 in SSW 6.0 mph 10.0 mph 69 % 0.00 in 195 W/m2
09:45 66.9 °F 56.4 °F 30.10 in SSW 6.0 mph 10.0 mph 69 % 0.00 in 195 W/m2
09:50 66.7 °F 55.8 °F 30.10 in SW 7.0 mph 10.0 mph 68 % 0.00 in 190 W/m2
09:55 66.7 °F 55.8 °F 30.10 in SW 7.0 mph 11.0 mph 68 % 0.00 in 332 W/m2
10:00 66.9 °F 55.6 °F 30.10 in SW 7.0 mph 11.0 mph 67 % 0.00 in 332 W/m2
10:05 67.5 °F 56.5 °F 30.10 in SW 7.0 mph 11.0 mph 68 % 0.00 in 686 W/m2
10:10 68.2 °F 55.5 °F 30.09 in SW 8.0 mph 13.0 mph 64 % 0.00 in 492 W/m2
10:15 68.5 °F 55.9 °F 30.09 in SSW 9.0 mph 15.0 mph 64 % 0.00 in 951 W/m2
10:20 68.5 °F 55.9 °F 30.09 in SSW 9.0 mph 15.0 mph 64 % 0.00 in 847 W/m2
10:25 68.9 °F 55.8 °F 30.09 in SW 9.0 mph 14.0 mph 63 % 0.00 in 376 W/m2
10:30 68.9 °F 56.2 °F 30.09 in SW 9.0 mph 14.0 mph 64 % 0.00 in 923 W/m2
10:35 69.3 °F 56.1 °F 30.09 in WSW 8.0 mph 13.0 mph 63 % 0.00 in 223 W/m2
10:40 69.1 °F 56.0 °F 30.09 in WSW 8.0 mph 12.0 mph 63 % 0.00 in 343 W/m2
10:45 68.9 °F 54.4 °F 30.09 in WSW 9.0 mph 14.0 mph 60 % 0.00 in 251 W/m2
10:50 68.7 °F 54.3 °F 30.09 in WSW 10.0 mph 16.0 mph 60 % 0.00 in 260 W/m2
10:55 68.9 °F 54.9 °F 30.09 in SW 9.0 mph 16.0 mph 61 % 0.00 in 940 W/m2
11:00 69.3 °F 55.2 °F 30.09 in SW 8.0 mph 14.0 mph 61 % 0.00 in 882 W/m2
11:05 69.8 °F 55.7 °F 30.09 in SW 8.0 mph 14.0 mph 61 % 0.00 in 900 W/m2
11:10 70.2 °F 54.2 °F 30.09 in SW 9.0 mph 16.0 mph 57 % 0.00 in 960 W/m2
11:15 70.0 °F 54.0 °F 30.09 in SW 11.0 mph 19.0 mph 57 % 0.00 in 230 W/m2
11:16 70.0 °F 54.0 °F 30.09 in SW 11.0 mph 20.0 mph 57 % 0.00 in 246 W/m2
11:21 69.6 °F 54.2 °F 30.09 in SSW 11.0 mph 20.0 mph 58 % 0.00 in 858 W/m2
11:26 70.2 °F 54.7 °F 30.09 in SSW 11.0 mph 20.0 mph 58 % 0.00 in 974 W/m2
11:31 70.5 °F 55.0 °F 30.09 in SSW 12.0 mph 20.0 mph 58 % 0.00 in 923 W/m2
11:36 71.1 °F 55.1 °F 30.09 in SSW 11.0 mph 19.0 mph 57 % 0.00 in 960 W/m2
11:41 71.1 °F 54.6 °F 30.09 in SSW 9.0 mph 19.0 mph 56 % 0.00 in 313 W/m2
11:46 71.1 °F 54.1 °F 30.09 in SW 9.0 mph 15.0 mph 55 % 0.00 in 475 W/m2
11:51 70.9 °F 53.9 °F 30.09 in SW 10.0 mph 21.0 mph 55 % 0.00 in 301 W/m2
11:56 69.8 °F 53.4 °F 30.09 in SW 12.0 mph 21.0 mph 56 % 0.00 in 288 W/m2
12:01 69.6 °F 53.7 °F 30.08 in SW 11.0 mph 20.0 mph 57 % 0.00 in 923 W/m2
12:06 70.2 °F 54.2 °F 30.08 in SW 11.0 mph 21.0 mph 57 % 0.00 in 800 W/m2
12:11 70.7 °F 53.7 °F 30.08 in SW 11.0 mph 22.0 mph 55 % 0.00 in 976 W/m2
12:16 71.2 °F 54.2 °F 30.08 in SSW 11.0 mph 22.0 mph 55 % 0.00 in 953 W/m2
12:21 71.4 °F 54.4 °F 30.08 in SSW 12.0 mph 22.0 mph 55 % 0.00 in 956 W/m2
12:26 71.4 °F 54.4 °F 30.08 in SSW 13.0 mph 22.0 mph 55 % 0.00 in 997 W/m2
12:31 71.1 °F 54.6 °F 30.08 in SSW 13.0 mph 24.0 mph 56 % 0.00 in 383 W/m2
12:37 70.9 °F 55.8 °F 30.08 in SW 12.0 mph 21.0 mph 59 % 0.00 in 311 W/m2
12:42 70.5 °F 55.5 °F 30.08 in WSW 9.0 mph 15.0 mph 59 % 0.00 in 294 W/m2
12:47 70.3 °F 55.3 °F 30.08 in WSW 10.0 mph 18.0 mph 59 % 0.00 in 960 W/m2
12:52 70.2 °F 54.7 °F 30.08 in WSW 12.0 mph 21.0 mph 58 % 0.00 in 399 W/m2
12:57 70.0 °F 55.0 °F 30.08 in WSW 11.0 mph 21.0 mph 59 % 0.00 in 399 W/m2
13:02 70.2 °F 55.2 °F 30.07 in SW 10.0 mph 16.0 mph 59 % 0.00 in 921 W/m2
13:07 70.5 °F 55.0 °F 30.07 in SW 9.0 mph 18.0 mph 58 % 0.00 in 921 W/m2
13:12 70.9 °F 54.4 °F 30.07 in SSW 10.0 mph 23.0 mph 56 % 0.00 in 1000 W/m2
13:17 71.2 °F 53.7 °F 30.07 in SSW 11.0 mph 23.0 mph 54 % 0.00 in 318 W/m2
13:22 71.6 °F 54.6 °F 30.07 in SW 11.0 mph 21.0 mph 55 % 0.00 in 318 W/m2
13:27 71.2 °F 53.7 °F 30.07 in SW 11.0 mph 18.0 mph 54 % 0.00 in 308 W/m2
13:32 71.1 °F 54.1 °F 30.07 in SW 10.0 mph 16.0 mph 55 % 0.00 in 997 W/m2
13:34 71.2 °F 55.2 °F 30.07 in SW 10.0 mph 16.0 mph 57 % 0.00 in 1002 W/m2
13:39 71.6 °F 54.6 °F 30.07 in SW 11.0 mph 15.0 mph 55 % 0.00 in 360 W/m2
13:44 71.6 °F 54.6 °F 30.06 in SW 10.0 mph 15.0 mph 55 % 0.00 in 997 W/m2
13:48 72.1 °F 54.1 °F 30.06 in SW 10.0 mph 15.0 mph 53 % 0.00 in 1032 W/m2
13:53 72.3 °F 53.2 °F 30.06 in SW 11.0 mph 22.0 mph 51 % 0.00 in 976 W/m2
13:58 72.3 °F 54.2 °F 30.06 in SSW 11.0 mph 22.0 mph 53 % 0.00 in 355 W/m2
14:03 72.3 °F 54.7 °F 30.06 in SW 10.0 mph 19.0 mph 54 % 0.00 in 383 W/m2
14:05 72.3 °F 54.7 °F 30.06 in SW 10.0 mph 19.0 mph 54 % 0.00 in 366 W/m2
14:10 71.8 °F 53.7 °F 30.06 in SW 11.0 mph 19.0 mph 53 % 0.00 in 352 W/m2
14:15 71.6 °F 53.6 °F 30.06 in WSW 11.0 mph 19.0 mph 53 % 0.00 in 408 W/m2
14:20 72.0 °F 53.4 °F 30.06 in WSW 10.0 mph 21.0 mph 52 % 0.00 in 454 W/m2
14:25 72.0 °F 53.4 °F 30.06 in SW 11.0 mph 21.0 mph 52 % 0.00 in 515 W/m2
14:30 72.0 °F 53.9 °F 30.06 in SW 11.0 mph 21.0 mph 53 % 0.00 in 336 W/m2
14:35 71.4 °F 53.9 °F 30.05 in SW 10.0 mph 18.0 mph 54 % 0.00 in 334 W/m2
14:40 72.1 °F 54.6 °F 30.05 in SW 10.0 mph 20.0 mph 54 % 0.00 in 974 W/m2
14:45 72.7 °F 54.6 °F 30.05 in SW 11.0 mph 20.0 mph 53 % 0.00 in 972 W/m2
14:50 72.9 °F 53.7 °F 30.05 in SW 11.0 mph 18.0 mph 51 % 0.00 in 861 W/m2
14:55 73.0 °F 54.4 °F 30.05 in SW 11.0 mph 18.0 mph 52 % 0.00 in 940 W/m2
15:00 73.4 °F 54.2 °F 30.05 in WSW 12.0 mph 20.0 mph 51 % 0.00 in 860 W/m2
15:05 73.2 °F 54.0 °F 30.05 in WSW 12.0 mph 20.0 mph 51 % 0.00 in 898 W/m2
15:10 73.4 °F 54.2 °F 30.05 in SW 10.0 mph 19.0 mph 51 % 0.00 in 338 W/m2
15:15 73.4 °F 53.6 °F 30.04 in SW 10.0 mph 19.0 mph 50 % 0.00 in 930 W/m2
15:20 73.8 °F 54.0 °F 30.05 in SW 10.0 mph 16.0 mph 50 % 0.00 in 972 W/m2
15:25 73.8 °F 54.0 °F 30.04 in SW 10.0 mph 19.0 mph 50 % 0.00 in 315 W/m2
15:30 73.0 °F 54.4 °F 30.04 in SW 10.0 mph 16.0 mph 52 % 0.00 in 870 W/m2
15:35 72.9 °F 54.7 °F 30.04 in SW 11.0 mph 16.0 mph 53 % 0.00 in 360 W/m2
15:40 72.9 °F 54.2 °F 30.04 in SSW 10.0 mph 16.0 mph 52 % 0.00 in 731 W/m2
15:45 72.3 °F 54.2 °F 30.04 in SSW 9.0 mph 16.0 mph 53 % 0.00 in 283 W/m2
15:50 72.0 °F 54.4 °F 30.04 in SSW 9.0 mph 16.0 mph 54 % 0.00 in 538 W/m2
15:55 72.0 °F 54.9 °F 30.04 in South 9.0 mph 16.0 mph 55 % 0.00 in 487 W/m2
15:57 72.0 °F 54.9 °F 30.04 in South 8.0 mph 16.0 mph 55 % 0.00 in 529 W/m2
16:02 72.3 °F 55.7 °F 30.03 in SSW 7.0 mph 12.0 mph 56 % 0.00 in 766 W/m2
16:07 72.9 °F 54.7 °F 30.03 in SW 7.0 mph 13.0 mph 53 % 0.00 in 624 W/m2
16:12 73.0 °F 54.4 °F 30.03 in SW 9.0 mph 19.0 mph 52 % 0.00 in 283 W/m2
16:17 72.9 °F 55.2 °F 30.03 in SW 10.0 mph 19.0 mph 54 % 0.00 in 603 W/m2
16:22 72.9 °F 55.2 °F 30.03 in SW 10.0 mph 16.0 mph 54 % 0.00 in 438 W/m2
16:27 72.7 °F 55.1 °F 30.03 in SW 9.0 mph 14.0 mph 54 % 0.00 in 390 W/m2
16:32 72.3 °F 54.2 °F 30.03 in SW 9.0 mph 14.0 mph 53 % 0.00 in 262 W/m2
16:37 72.0 °F 54.4 °F 30.03 in SSW 10.0 mph 15.0 mph 54 % 0.00 in 482 W/m2
16:42 72.1 °F 55.1 °F 30.03 in SW 9.0 mph 15.0 mph 55 % 0.00 in 309 W/m2
16:47 72.1 °F 55.1 °F 30.03 in SW 8.0 mph 13.0 mph 55 % 0.00 in 264 W/m2
16:52 72.1 °F 55.1 °F 30.03 in SW 7.0 mph 11.0 mph 55 % 0.00 in 250 W/m2
16:55 72.1 °F 54.6 °F 30.03 in SW 7.0 mph 14.0 mph 54 % 0.00 in 234 W/m2
17:00 72.0 °F 54.4 °F 30.02 in SW 8.0 mph 14.0 mph 54 % 0.00 in 492 W/m2
17:05 72.1 °F 54.6 °F 30.02 in SW 9.0 mph 14.0 mph 54 % 0.00 in 239 W/m2
17:10 72.0 °F 54.4 °F 30.02 in SW 8.0 mph 13.0 mph 54 % 0.00 in 267 W/m2
17:15 72.0 °F 54.9 °F 30.02 in SW 8.0 mph 13.0 mph 55 % 0.00 in 255 W/m2
17:20 72.1 °F 54.6 °F 30.02 in SW 8.0 mph 14.0 mph 54 % 0.00 in 482 W/m2
17:25 72.1 °F 54.6 °F 30.02 in SW 10.0 mph 18.0 mph 54 % 0.00 in 323 W/m2
17:30 72.0 °F 53.9 °F 30.02 in SW 10.0 mph 18.0 mph 53 % 0.00 in 225 W/m2
17:35 72.0 °F 54.9 °F 30.02 in SW 8.0 mph 15.0 mph 55 % 0.00 in 624 W/m2
17:40 72.7 °F 55.1 °F 30.02 in SW 7.0 mph 11.0 mph 54 % 0.00 in 601 W/m2
17:45 73.2 °F 55.1 °F 30.02 in SW 8.0 mph 16.0 mph 53 % 0.00 in 357 W/m2
17:50 73.0 °F 54.4 °F 30.02 in SW 9.0 mph 16.0 mph 52 % 0.00 in 237 W/m2
17:55 72.7 °F 54.6 °F 30.02 in SSW 10.0 mph 18.0 mph 53 % 0.00 in 227 W/m2
18:00 72.3 °F 54.7 °F 30.02 in SSW 9.0 mph 18.0 mph 54 % 0.00 in 264 W/m2
18:05 72.3 °F 54.2 °F 30.01 in SW 9.0 mph 14.0 mph 53 % 0.00 in 469 W/m2
18:10 72.3 °F 54.2 °F 30.01 in SW 9.0 mph 14.0 mph 53 % 0.00 in 459 W/m2
18:15 72.7 °F 55.1 °F 30.01 in SW 8.0 mph 15.0 mph 54 % 0.00 in 441 W/m2
18:20 72.7 °F 54.6 °F 30.01 in SW 8.0 mph 15.0 mph 53 % 0.00 in 169 W/m2
18:25 72.1 °F 54.6 °F 30.01 in SSW 10.0 mph 15.0 mph 54 % 0.00 in 155 W/m2
18:30 72.3 °F 54.7 °F 30.01 in SW 9.0 mph 13.0 mph 54 % 0.00 in 334 W/m2
18:35 72.7 °F 55.1 °F 30.01 in WSW 8.0 mph 15.0 mph 54 % 0.00 in 125 W/m2
18:40 72.3 °F 55.2 °F 30.01 in SW 7.0 mph 15.0 mph 55 % 0.00 in 130 W/m2
18:45 72.0 °F 54.9 °F 30.01 in SSW 9.0 mph 16.0 mph 55 % 0.00 in 153 W/m2
18:50 71.8 °F 55.2 °F 30.01 in SSW 10.0 mph 16.0 mph 56 % 0.00 in 172 W/m2
18:55 71.4 °F 54.9 °F 30.01 in SSW 9.0 mph 15.0 mph 56 % 0.00 in 111 W/m2
19:00 71.4 °F 55.4 °F 30.01 in SSW 7.0 mph 15.0 mph 57 % 0.00 in 132 W/m2
19:05 71.6 °F 55.6 °F 30.00 in SW 7.0 mph 11.0 mph 57 % 0.00 in 223 W/m2
19:10 71.8 °F 55.2 °F 30.00 in SW 6.0 mph 12.0 mph 56 % 0.00 in 183 W/m2
19:15 71.8 °F 55.7 °F 30.00 in SW 6.0 mph 12.0 mph 57 % 0.00 in 109 W/m2
19:21 71.6 °F 55.6 °F 30.00 in SW 6.0 mph 9.0 mph 57 % 0.00 in 76 W/m2
19:26 71.4 °F 55.4 °F 30.00 in SW 6.0 mph 12.0 mph 57 % 0.00 in 167 W/m2
19:31 71.4 °F 55.4 °F 30.00 in SW 7.0 mph 12.0 mph 57 % 0.00 in 179 W/m2
19:36 71.4 °F 55.9 °F 30.01 in SSW 7.0 mph 12.0 mph 58 % 0.00 in 123 W/m2
19:41 71.4 °F 55.9 °F 30.00 in SSW 7.0 mph 12.0 mph 58 % 0.00 in 69 W/m2
19:46 71.1 °F 55.5 °F 30.00 in SSW 7.0 mph 12.0 mph 58 % 0.00 in 77 W/m2
19:51 70.9 °F 55.8 °F 30.00 in SSW 7.0 mph 12.0 mph 59 % 0.00 in 125 W/m2
19:56 70.5 °F 56.0 °F 30.00 in SW 7.0 mph 11.0 mph 60 % 0.00 in 63 W/m2
20:01 70.3 °F 55.8 °F 30.00 in SSW 7.0 mph 11.0 mph 60 % 0.00 in 46 W/m2
20:06 70.0 °F 55.9 °F 30.00 in SSW 6.0 mph 10.0 mph 61 % 0.00 in 40 W/m2
20:11 69.8 °F 55.7 °F 30.00 in SSW 6.0 mph 11.0 mph 61 % 0.00 in 35 W/m2
20:16 69.6 °F 56.0 °F 30.00 in SW 6.0 mph 11.0 mph 62 % 0.00 in 30 W/m2
20:21 69.3 °F 55.7 °F 30.00 in SW 5.0 mph 9.0 mph 62 % 0.00 in 28 W/m2
20:26 69.1 °F 56.0 °F 30.00 in SW 5.0 mph 9.0 mph 63 % 0.00 in 28 W/m2
20:31 68.7 °F 55.6 °F 30.00 in SW 4.0 mph 7.0 mph 63 % 0.00 in 28 W/m2
20:36 68.5 °F 55.9 °F 30.00 in SW 4.0 mph 6.0 mph 64 % 0.00 in 25 W/m2
20:41 68.4 °F 55.7 °F 30.00 in SW 4.0 mph 6.0 mph 64 % 0.00 in 23 W/m2
20:46 68.2 °F 55.5 °F 30.00 in SW 3.0 mph 6.0 mph 64 % 0.00 in 21 W/m2
20:51 68.2 °F 55.5 °F 30.00 in SW 3.0 mph 7.0 mph 64 % 0.00 in 19 W/m2
20:56 68.0 °F 55.8 °F 30.00 in SW 2.0 mph 7.0 mph 65 % 0.00 in 14 W/m2
21:01 67.8 °F 55.6 °F 30.00 in SW 2.0 mph 4.0 mph 65 % 0.00 in 12 W/m2
21:06 67.6 °F 55.5 °F 30.00 in SW 3.0 mph 5.0 mph 65 % 0.00 in 11 W/m2
21:11 67.5 °F 55.3 °F 30.00 in SW 3.0 mph 6.0 mph 65 % 0.00 in 7 W/m2
21:16 67.3 °F 55.1 °F 30.00 in SW 4.0 mph 6.0 mph 65 % 0.00 in 5 W/m2
21:21 67.1 °F 55.4 °F 30.00 in WSW 3.0 mph 6.0 mph 66 % 0.00 in 0 W/m2
21:26 66.7 °F 55.4 °F 30.00 in West 3.0 mph 6.0 mph 67 % 0.00 in 0 W/m2
21:31 66.6 °F 54.8 °F 30.00 in WSW 3.0 mph 7.0 mph 66 % 0.00 in 0 W/m2
21:36 66.4 °F 55.1 °F 30.00 in WSW 4.0 mph 7.0 mph 67 % 0.00 in 0 W/m2
21:41 66.2 °F 54.9 °F 30.00 in WSW 4.0 mph 8.0 mph 67 % 0.00 in 0 W/m2
21:46 66.0 °F 54.7 °F 30.00 in WSW 5.0 mph 8.0 mph 67 % 0.00 in 0 W/m2
21:51 65.8 °F 55.0 °F 30.00 in WSW 4.0 mph 8.0 mph 68 % 0.00 in 0 W/m2
21:57 65.5 °F 55.0 °F 30.00 in West 3.0 mph 6.0 mph 69 % 0.00 in 0 W/m2
22:02 65.3 °F 54.9 °F 30.00 in West 2.0 mph 5.0 mph 69 % 0.00 in 0 W/m2
22:07 64.9 °F 54.5 °F 30.00 in West 2.0 mph 5.0 mph 69 % 0.00 in 0 W/m2
22:12 64.8 °F 54.7 °F 30.00 in West 3.0 mph 6.0 mph 70 % 0.00 in 0 W/m2
22:17 64.6 °F 54.6 °F 30.00 in West 4.0 mph 6.0 mph 70 % 0.00 in 0 W/m2
22:22 64.6 °F 54.6 °F 30.00 in West 4.0 mph 7.0 mph 70 % 0.00 in 0 W/m2
22:27 64.4 °F 54.8 °F 30.00 in West 4.0 mph 7.0 mph 71 % 0.00 in 0 W/m2
22:32 64.2 °F 54.6 °F 30.00 in West 4.0 mph 6.0 mph 71 % 0.00 in 0 W/m2
22:37 64.0 °F 54.4 °F 30.00 in West 4.0 mph 7.0 mph 71 % 0.00 in 0 W/m2
22:42 63.9 °F 54.7 °F 30.00 in WNW 4.0 mph 8.0 mph 72 % 0.00 in 0 W/m2
22:47 63.7 °F 54.9 °F 30.00 in WNW 4.0 mph 8.0 mph 73 % 0.00 in 0 W/m2
22:52 63.7 °F 54.9 °F 30.00 in West 2.0 mph 6.0 mph 73 % 0.00 in 0 W/m2
22:53 63.5 °F 54.7 °F 30.00 in West 2.0 mph 5.0 mph 73 % 0.00 in 0 W/m2
22:58 63.3 °F 54.9 °F 29.99 in West 1.0 mph 4.0 mph 74 % 0.00 in 0 W/m2
23:03 63.1 °F 54.7 °F 30.00 in West 1.0 mph 4.0 mph 74 % 0.00 in 0 W/m2
23:08 63.0 °F 54.9 °F 29.99 in West 2.0 mph 5.0 mph 75 % 0.00 in 0 W/m2
23:13 62.8 °F 55.1 °F 29.99 in West 3.0 mph 6.0 mph 76 % 0.00 in 0 W/m2
23:18 62.6 °F 54.9 °F 29.99 in WNW 2.0 mph 6.0 mph 76 % 0.00 in 0 W/m2
23:23 62.4 °F 55.1 °F 29.99 in WNW 2.0 mph 5.0 mph 77 % 0.00 in 0 W/m2
23:26 62.2 °F 54.9 °F 29.99 in WNW 2.0 mph 5.0 mph 77 % 0.00 in 0 W/m2
23:31 62.1 °F 54.8 °F 29.99 in WNW 3.0 mph 6.0 mph 77 % 0.00 in 0 W/m2
23:36 62.1 °F 55.1 °F 29.99 in WNW 4.0 mph 6.0 mph 78 % 0.00 in 0 W/m2
23:41 61.9 °F 54.9 °F 29.99 in WNW 4.0 mph 7.0 mph 78 % 0.00 in 0 W/m2
23:46 61.9 °F 54.9 °F 29.99 in WNW 4.0 mph 7.0 mph 78 % 0.00 in 0 W/m2
23:51 61.7 °F 55.1 °F 29.99 in WNW 3.0 mph 7.0 mph 79 % 0.00 in 0 W/m2
23:56 61.5 °F 54.9 °F 29.99 in NW 2.0 mph 5.0 mph 79 % 0.00 in 0 W/m2
Delerius-Weather
Compliments of Weather Underground - 2.25 mb

Data updates at regular intervals.